createdAt,value
2022-12-16T00:01:28.600Z,5.17
2022-12-16T00:03:58.504Z,5.53
2022-12-16T00:06:29.521Z,5.39
2022-12-16T00:08:57.784Z,5.66
2022-12-16T00:11:25.590Z,5.09
2022-12-16T00:13:55.626Z,5.28
2022-12-16T00:16:24.866Z,5.25
2022-12-16T00:18:52.505Z,4.78
2022-12-16T00:21:20.874Z,5.36
2022-12-16T00:23:49.073Z,5.23
2022-12-16T00:26:16.919Z,5.38
2022-12-16T00:28:44.383Z,4.75
2022-12-16T00:31:12.707Z,5.03
2022-12-16T00:33:40.342Z,5.20
2022-12-16T00:36:08.553Z,5.11
2022-12-16T00:38:36.460Z,5.08
2022-12-16T00:41:05.070Z,5.17
2022-12-16T00:43:33.251Z,5.37
2022-12-16T00:46:02.372Z,5.44
2022-12-16T00:48:30.109Z,5.69
2022-12-16T00:50:57.814Z,5.24
2022-12-16T00:53:27.315Z,5.31
2022-12-16T00:56:08.190Z,5.44
2022-12-16T00:58:37.535Z,5.40
2022-12-16T01:01:05.761Z,5.24
2022-12-16T01:03:34.727Z,5.09
2022-12-16T01:06:15.494Z,5.12
2022-12-16T01:08:50.380Z,5.36
2022-12-16T01:11:19.635Z,5.34
2022-12-16T01:13:51.319Z,4.97
2022-12-16T01:16:20.397Z,4.53
2022-12-16T01:18:48.831Z,4.91
2022-12-16T01:21:16.880Z,5.09
2022-12-16T01:23:48.064Z,4.87
2022-12-16T01:26:20.659Z,4.88
2022-12-16T01:28:49.497Z,4.82
2022-12-16T01:31:19.462Z,5.12
2022-12-16T01:33:47.119Z,5.11
2022-12-16T01:36:15.318Z,4.97
2022-12-16T01:38:46.853Z,4.69
2022-12-16T01:41:15.548Z,4.96
2022-12-16T01:43:45.308Z,5.23
2022-12-16T01:46:12.755Z,5.36
2022-12-16T01:49:07.144Z,5.49
2022-12-16T01:51:47.384Z,5.03
2022-12-16T01:54:44.379Z,5.19
2022-12-16T01:57:17.509Z,4.90
2022-12-16T01:59:47.687Z,4.95
2022-12-16T02:02:15.458Z,5.05
2022-12-16T02:05:01.957Z,4.90
2022-12-16T02:07:30.994Z,4.81
2022-12-16T02:09:59.281Z,4.84
2022-12-16T02:12:46.419Z,4.94
2022-12-16T02:15:26.434Z,5.06
2022-12-16T02:18:00.972Z,5.11
2022-12-16T02:21:08.583Z,5.28
2022-12-16T02:23:39.420Z,4.91
2022-12-16T02:26:35.300Z,5.17
2022-12-16T02:29:30.878Z,5.07
2022-12-16T02:32:08.015Z,4.75
2022-12-16T02:34:49.442Z,4.95
2022-12-16T02:37:37.722Z,4.83
2022-12-16T02:40:16.814Z,4.68
2022-12-16T02:42:48.551Z,4.71
2022-12-16T02:45:18.823Z,4.62
2022-12-16T02:47:47.140Z,4.66
2022-12-16T02:50:23.046Z,5.17
2022-12-16T02:52:55.236Z,5.18
2022-12-16T02:55:28.950Z,4.97
2022-12-16T02:58:22.085Z,4.95
2022-12-16T03:00:58.475Z,5.10
2022-12-16T03:03:50.982Z,4.90
2022-12-16T03:06:21.746Z,4.93
2022-12-16T03:08:52.992Z,4.79
2022-12-16T03:11:20.772Z,4.81
2022-12-16T03:13:50.869Z,4.82
2022-12-16T03:16:22.045Z,4.91
2022-12-16T03:18:55.807Z,5.12
2022-12-16T03:21:27.828Z,5.17
2022-12-16T03:24:01.310Z,4.90
2022-12-16T03:26:31.823Z,4.65
2022-12-16T03:29:07.592Z,4.71
2022-12-16T03:31:45.993Z,4.99
2022-12-16T03:34:29.718Z,5.24
2022-12-16T03:37:07.579Z,5.09
2022-12-16T03:39:42.712Z,5.42
2022-12-16T03:42:11.973Z,4.95
2022-12-16T03:44:40.282Z,5.24
2022-12-16T03:47:08.058Z,4.93
2022-12-16T03:49:37.966Z,5.16
2022-12-16T03:52:06.756Z,5.42
2022-12-16T03:54:35.782Z,5.36
2022-12-16T03:57:05.033Z,5.32
2022-12-16T03:59:33.015Z,5.50
2022-12-16T04:02:00.876Z,5.18
2022-12-16T04:04:30.562Z,5.42
2022-12-16T04:07:18.092Z,5.48
2022-12-16T04:09:51.459Z,5.63
2022-12-16T04:12:38.705Z,5.10
2022-12-16T04:15:26.544Z,5.27
2022-12-16T04:18:15.225Z,5.18
2022-12-16T04:21:04.729Z,5.25
2022-12-16T04:23:52.524Z,5.25
2022-12-16T04:26:22.799Z,5.37
2022-12-16T04:28:50.775Z,5.09
2022-12-16T04:31:18.900Z,4.98
2022-12-16T04:34:07.287Z,5.01
2022-12-16T04:36:54.529Z,5.65
2022-12-16T04:39:43.193Z,5.97
2022-12-16T04:42:29.325Z,5.92
2022-12-16T04:45:17.764Z,5.82
2022-12-16T04:48:04.736Z,5.74
2022-12-16T04:50:51.418Z,5.88
2022-12-16T04:53:37.882Z,5.80
2022-12-16T04:56:41.720Z,5.42
2022-12-16T04:59:28.080Z,5.48
2022-12-16T05:02:18.785Z,5.20
2022-12-16T05:05:05.954Z,5.47
2022-12-16T05:07:53.602Z,5.43
2022-12-16T05:10:41.731Z,5.70
2022-12-16T05:13:28.259Z,5.48
2022-12-16T05:16:16.828Z,5.48
2022-12-16T05:19:05.736Z,5.19
2022-12-16T05:21:52.811Z,6.05
2022-12-16T05:24:56.652Z,6.07
2022-12-16T05:27:45.840Z,6.14
2022-12-16T05:30:35.642Z,5.78
2022-12-16T05:33:24.420Z,5.78
2022-12-16T05:36:17.548Z,5.83
2022-12-16T05:39:04.757Z,5.87
2022-12-16T05:42:00.647Z,6.22
2022-12-16T05:44:49.843Z,5.97
2022-12-16T05:47:36.642Z,6.07
2022-12-16T05:50:24.798Z,6.14
2022-12-16T05:53:28.542Z,6.27
2022-12-16T05:56:16.005Z,6.07
2022-12-16T05:59:06.214Z,6.06
2022-12-16T06:01:55.836Z,6.36
2022-12-16T06:04:43.000Z,5.87
2022-12-16T06:07:36.880Z,6.46
2022-12-16T06:10:24.891Z,6.24
2022-12-16T06:13:13.805Z,6.07
2022-12-16T06:16:09.408Z,5.90
2022-12-16T06:19:00.444Z,6.29
2022-12-16T06:21:47.607Z,6.40
2022-12-16T06:24:35.180Z,6.48
2022-12-16T06:27:24.670Z,6.55
2022-12-16T06:30:13.458Z,6.64
2022-12-16T06:33:02.072Z,6.97
2022-12-16T06:35:50.752Z,6.99
2022-12-16T06:38:37.936Z,6.49
2022-12-16T06:41:33.627Z,6.31
2022-12-16T06:44:21.586Z,6.06
2022-12-16T06:47:07.895Z,6.89
2022-12-16T06:49:54.717Z,6.75
2022-12-16T06:52:41.153Z,6.55
2022-12-16T06:55:30.409Z,6.64
2022-12-16T06:58:09.908Z,6.73
2022-12-16T07:01:02.981Z,6.70
2022-12-16T07:03:49.726Z,7.25
2022-12-16T07:06:37.674Z,7.13
2022-12-16T07:09:24.422Z,7.00
2022-12-16T07:12:13.377Z,6.96
2022-12-16T07:15:01.491Z,6.95
2022-12-16T07:17:48.634Z,7.10
2022-12-16T07:20:36.649Z,7.32
2022-12-16T07:23:24.250Z,7.10
2022-12-16T07:26:11.074Z,7.07
2022-12-16T07:29:00.737Z,7.20
2022-12-16T07:31:47.671Z,7.30
2022-12-16T07:34:40.815Z,7.23
2022-12-16T07:37:29.784Z,7.08
2022-12-16T07:40:16.820Z,6.96
2022-12-16T07:43:06.987Z,7.37
2022-12-16T07:45:53.617Z,7.36
2022-12-16T07:48:43.562Z,7.60
2022-12-16T07:51:30.798Z,7.50
2022-12-16T07:54:18.608Z,7.43
2022-12-16T07:57:06.710Z,7.18
2022-12-16T07:59:58.061Z,6.93
2022-12-16T08:02:45.304Z,7.19
2022-12-16T08:05:33.569Z,7.15
2022-12-16T08:08:26.671Z,7.55
2022-12-16T08:11:15.274Z,7.57
2022-12-16T08:14:02.682Z,7.61
2022-12-16T08:16:51.761Z,7.27
2022-12-16T08:19:39.302Z,7.39
2022-12-16T08:22:26.833Z,7.69
2022-12-16T08:25:16.142Z,7.52
2022-12-16T08:28:15.676Z,7.54
2022-12-16T08:31:10.797Z,7.19
2022-12-16T08:33:57.667Z,7.20
2022-12-16T08:36:44.901Z,7.76
2022-12-16T08:39:31.652Z,8.00
2022-12-16T08:42:20.704Z,7.70
2022-12-16T08:45:11.680Z,8.33
2022-12-16T08:48:02.783Z,8.42
2022-12-16T08:50:50.495Z,8.21
2022-12-16T08:53:38.325Z,8.14
2022-12-16T08:56:26.251Z,8.18
2022-12-16T08:59:12.667Z,8.41
2022-12-16T09:02:01.694Z,8.30
2022-12-16T09:04:53.428Z,8.45
2022-12-16T09:07:46.013Z,8.76
2022-12-16T09:10:39.804Z,8.52
2022-12-16T09:16:28.716Z,8.42
2022-12-16T09:19:17.199Z,8.70
2022-12-16T09:22:07.588Z,8.56
2022-12-16T09:25:02.141Z,8.52
2022-12-16T09:27:49.705Z,8.71
2022-12-16T09:30:35.990Z,8.76
2022-12-16T09:33:23.135Z,8.80
2022-12-16T09:36:10.678Z,9.33
2022-12-16T09:38:59.411Z,9.07
2022-12-16T09:41:55.518Z,8.89
2022-12-16T09:44:48.183Z,8.75
2022-12-16T09:47:51.794Z,8.83
2022-12-16T09:50:47.137Z,9.11
2022-12-16T09:53:40.626Z,9.55
2022-12-16T09:56:36.634Z,9.27
2022-12-16T09:59:31.677Z,9.39
2022-12-16T10:02:21.819Z,9.27
2022-12-16T10:05:22.306Z,9.16
2022-12-16T10:11:31.996Z,9.41
2022-12-16T10:14:35.276Z,9.52
2022-12-16T10:17:31.732Z,9.48
2022-12-16T10:20:30.510Z,9.38
2022-12-16T10:23:32.763Z,9.47
2022-12-16T10:26:30.142Z,9.59
2022-12-16T10:29:30.367Z,9.24
2022-12-16T10:32:21.192Z,9.45
2022-12-16T10:35:16.877Z,9.38
2022-12-16T10:38:06.954Z,9.53
2022-12-16T10:40:54.306Z,9.58
2022-12-16T10:43:55.627Z,9.37
2022-12-16T10:46:46.082Z,9.53
2022-12-16T10:49:34.889Z,9.79
2022-12-16T10:52:21.988Z,9.82
2022-12-16T10:55:21.580Z,9.96
2022-12-16T10:58:34.084Z,9.67
2022-12-16T11:01:39.624Z,9.59
2022-12-16T11:04:46.311Z,9.67
2022-12-16T11:08:04.970Z,9.17
2022-12-16T11:11:01.948Z,9.41
2022-12-16T11:13:51.228Z,9.19
2022-12-16T11:16:44.038Z,9.25
2022-12-16T11:19:47.052Z,9.56
2022-12-16T11:22:41.446Z,9.56
2022-12-16T11:25:37.197Z,9.03
2022-12-16T11:28:35.010Z,9.06
2022-12-16T11:31:30.582Z,8.89
2022-12-16T11:34:19.589Z,8.60
2022-12-16T11:37:10.406Z,8.86
2022-12-16T11:39:58.473Z,8.93
2022-12-16T11:42:52.609Z,9.06
2022-12-16T11:45:47.693Z,9.02
2022-12-16T11:48:52.144Z,8.83
2022-12-16T11:51:40.076Z,8.90
2022-12-16T11:54:34.412Z,9.38
2022-12-16T11:57:44.739Z,9.14
2022-12-16T12:00:38.463Z,9.12
2022-12-16T12:03:33.575Z,9.12
2022-12-16T12:06:28.063Z,9.10
2022-12-16T12:09:30.340Z,9.57
2022-12-16T12:12:53.194Z,9.48
2022-12-16T12:15:40.559Z,8.78
2022-12-16T12:18:42.531Z,9.17
2022-12-16T12:21:41.968Z,9.16
2022-12-16T12:24:36.502Z,8.82
2022-12-16T12:27:48.821Z,8.70
2022-12-16T12:30:45.525Z,8.69
2022-12-16T12:33:56.892Z,8.61
2022-12-16T12:36:57.444Z,8.75
2022-12-16T12:39:54.556Z,8.45
2022-12-16T12:42:54.918Z,8.91
2022-12-16T12:45:54.048Z,8.72
2022-12-16T12:48:47.856Z,8.92
2022-12-16T12:51:52.533Z,8.45
2022-12-16T12:55:00.845Z,8.91
2022-12-16T12:57:59.732Z,9.20
2022-12-16T13:00:52.296Z,9.12
2022-12-16T13:04:00.978Z,8.88
2022-12-16T13:06:52.567Z,9.19
2022-12-16T13:09:52.971Z,8.94
2022-12-16T13:12:49.800Z,9.51
2022-12-16T13:15:54.638Z,9.45
2022-12-16T13:18:50.666Z,9.48
2022-12-16T13:21:59.576Z,9.47
2022-12-16T13:25:03.724Z,9.07
2022-12-16T13:28:14.737Z,9.02
2022-12-16T13:31:24.871Z,8.98
2022-12-16T13:34:22.367Z,9.25
2022-12-16T13:37:28.451Z,8.97
2022-12-16T13:40:34.655Z,9.12
2022-12-16T13:43:24.162Z,9.10
2022-12-16T13:46:15.726Z,9.18
2022-12-16T13:49:02.970Z,9.41
2022-12-16T13:51:55.888Z,9.34
2022-12-16T13:54:59.845Z,9.30
2022-12-16T13:57:51.276Z,9.20
2022-12-16T14:00:44.659Z,9.31
2022-12-16T14:03:50.898Z,9.15
2022-12-16T14:06:47.715Z,9.15
2022-12-16T14:09:54.447Z,8.73
2022-12-16T14:13:04.724Z,9.08
2022-12-16T14:16:31.673Z,9.08
2022-12-16T14:19:31.194Z,9.04
2022-12-16T14:22:49.733Z,8.92
2022-12-16T14:25:46.218Z,8.81
2022-12-16T14:28:37.717Z,8.88
2022-12-16T14:31:35.680Z,8.98
2022-12-16T14:34:23.652Z,8.47
2022-12-16T14:37:40.611Z,8.35
2022-12-16T14:40:50.585Z,8.42
2022-12-16T14:43:44.669Z,8.42
2022-12-16T14:46:50.717Z,8.47
2022-12-16T14:49:48.713Z,8.53
2022-12-16T14:52:50.606Z,8.60
2022-12-16T14:58:56.001Z,8.95
2022-12-16T15:01:45.156Z,8.95
2022-12-16T15:07:36.306Z,8.57
2022-12-16T15:10:35.782Z,8.61
2022-12-16T15:13:36.379Z,8.61
2022-12-16T15:16:35.621Z,8.46
2022-12-16T15:19:25.708Z,8.46
2022-12-16T15:22:17.814Z,8.31
2022-12-16T15:25:10.703Z,8.34
2022-12-16T15:28:00.317Z,8.38
2022-12-16T15:30:54.814Z,8.22
2022-12-16T15:33:56.429Z,8.14
2022-12-16T15:40:00.210Z,7.72
2022-12-16T15:42:50.826Z,8.16
2022-12-16T15:45:50.668Z,7.78
2022-12-16T15:51:53.619Z,7.81
2022-12-16T15:54:49.441Z,7.93
2022-12-16T15:57:54.672Z,7.82
2022-12-16T16:00:48.555Z,7.54
2022-12-16T16:03:45.762Z,7.27
2022-12-16T16:06:49.792Z,7.95
2022-12-16T16:09:34.579Z,7.67
2022-12-16T16:12:25.554Z,7.65
2022-12-16T16:18:27.540Z,7.30
2022-12-16T16:21:32.575Z,7.40
2022-12-16T16:24:22.504Z,7.27
2022-12-16T16:33:09.529Z,7.53
2022-12-16T16:35:59.728Z,7.55
2022-12-16T16:38:50.571Z,7.41
2022-12-16T16:41:43.561Z,7.35
2022-12-16T16:44:30.557Z,7.44
2022-12-16T16:47:22.161Z,7.47
2022-12-16T16:50:19.090Z,7.61
2022-12-16T16:53:15.554Z,7.49
2022-12-16T16:56:12.631Z,7.26
2022-12-16T16:59:09.608Z,7.32
2022-12-16T17:02:03.663Z,7.45
2022-12-16T17:04:51.980Z,7.13
2022-12-16T17:07:53.616Z,7.13
2022-12-16T17:10:45.306Z,7.09
2022-12-16T17:13:39.510Z,7.12
2022-12-16T17:16:21.719Z,6.70
2022-12-16T17:19:15.418Z,7.03
2022-12-16T17:27:55.515Z,7.10
2022-12-16T17:30:47.478Z,7.23
2022-12-16T17:33:46.543Z,7.44
2022-12-16T17:36:40.566Z,7.51
2022-12-16T17:39:29.668Z,7.40
2022-12-16T17:42:19.616Z,7.40
2022-12-16T17:48:13.390Z,7.49
2022-12-16T17:51:00.388Z,7.39
2022-12-16T17:53:38.554Z,7.35
2022-12-16T17:56:30.640Z,7.27
2022-12-16T18:02:31.738Z,7.05
2022-12-16T18:05:07.451Z,6.89
2022-12-16T18:07:55.459Z,6.83
2022-12-16T18:10:51.687Z,6.55
2022-12-16T18:13:39.258Z,6.52
2022-12-16T18:16:32.593Z,6.52
2022-12-16T18:19:31.552Z,6.71
2022-12-16T18:22:22.588Z,6.37
2022-12-16T18:25:18.612Z,6.46
2022-12-16T18:28:07.571Z,6.52
2022-12-16T18:34:07.110Z,7.01
2022-12-16T18:36:55.644Z,7.18
2022-12-16T18:39:50.214Z,7.22
2022-12-16T18:42:38.536Z,7.15
2022-12-16T18:45:31.539Z,6.53
2022-12-16T18:48:08.474Z,6.39
2022-12-16T18:51:14.734Z,6.31
2022-12-16T18:56:56.551Z,6.55
2022-12-16T18:59:43.857Z,6.51
2022-12-16T19:05:17.857Z,6.77
2022-12-16T19:08:14.322Z,6.84
2022-12-16T19:11:17.179Z,6.91
2022-12-16T19:14:09.536Z,6.33
2022-12-16T19:22:54.875Z,6.75
2022-12-16T19:25:43.396Z,6.68
2022-12-16T19:28:35.682Z,6.77
2022-12-16T19:31:31.106Z,6.70
2022-12-16T19:37:26.854Z,6.40
2022-12-16T19:40:14.409Z,6.56
2022-12-16T19:45:59.370Z,6.14
2022-12-16T19:51:50.012Z,6.14
2022-12-16T19:54:37.492Z,6.32
2022-12-16T19:57:44.540Z,5.95
2022-12-16T20:00:38.129Z,5.85
2022-12-16T20:03:29.913Z,5.89
2022-12-16T20:06:23.651Z,6.33
2022-12-16T20:09:19.566Z,6.32
2022-12-16T20:12:09.739Z,6.12
2022-12-16T20:14:58.511Z,6.08
2022-12-16T20:17:36.001Z,6.30
2022-12-16T20:20:24.158Z,6.02
2022-12-16T20:23:15.929Z,6.11
2022-12-16T20:26:22.507Z,5.64
2022-12-16T20:29:12.534Z,6.44
2022-12-16T20:32:00.316Z,6.29
2022-12-16T20:37:31.183Z,6.16
2022-12-16T20:40:10.567Z,5.93
2022-12-16T20:43:02.522Z,5.78
2022-12-16T20:45:49.354Z,5.68
2022-12-16T20:48:43.471Z,5.43
2022-12-16T20:51:33.521Z,5.54
2022-12-16T20:54:23.605Z,5.87
2022-12-16T20:57:17.474Z,5.63
2022-12-16T21:00:08.575Z,5.79
2022-12-16T21:02:57.143Z,5.84
2022-12-16T21:05:48.160Z,5.37
2022-12-16T21:08:40.660Z,5.73
2022-12-16T21:14:22.815Z,5.65
2022-12-16T21:17:09.988Z,5.77
2022-12-16T21:20:08.506Z,5.80
2022-12-16T21:22:58.478Z,5.94
2022-12-16T21:26:01.473Z,5.79
2022-12-16T21:31:29.446Z,5.69
2022-12-16T21:34:17.583Z,5.59
2022-12-16T21:37:03.847Z,5.38
2022-12-16T21:39:51.418Z,5.22
2022-12-16T21:42:44.689Z,5.21
2022-12-16T21:45:35.353Z,5.69
2022-12-16T21:48:21.970Z,5.81
2022-12-16T21:51:26.783Z,5.36
2022-12-16T21:54:13.980Z,5.21
2022-12-16T21:57:00.536Z,5.31
2022-12-16T21:59:48.689Z,5.37
2022-12-16T22:02:41.684Z,5.30
2022-12-16T22:05:33.123Z,4.74
2022-12-16T22:08:25.350Z,4.24
2022-12-16T22:11:15.812Z,4.99
2022-12-16T22:14:03.519Z,4.61
2022-12-16T22:16:52.380Z,4.61
2022-12-16T22:19:39.664Z,4.98
2022-12-16T22:22:26.551Z,4.89
2022-12-16T22:25:14.652Z,5.47
2022-12-16T22:28:03.544Z,4.92
2022-12-16T22:30:50.116Z,5.06
2022-12-16T22:33:40.491Z,5.22
2022-12-16T22:39:23.852Z,5.24
2022-12-16T22:42:10.370Z,4.72
2022-12-16T22:45:00.496Z,5.23
2022-12-16T22:47:50.869Z,4.97
2022-12-16T22:50:38.862Z,4.94
2022-12-16T22:56:21.407Z,5.11
2022-12-16T22:59:08.538Z,4.80
2022-12-16T23:02:01.508Z,4.97
2022-12-16T23:04:48.112Z,4.76
2022-12-16T23:07:35.230Z,4.81
2022-12-16T23:10:26.620Z,5.10
2022-12-16T23:13:15.455Z,4.76
2022-12-16T23:16:01.859Z,4.64
2022-12-16T23:18:48.961Z,4.20
2022-12-16T23:21:37.387Z,4.33
2022-12-16T23:24:25.760Z,4.35
2022-12-16T23:27:14.168Z,4.96
2022-12-16T23:30:02.606Z,5.11
2022-12-16T23:32:55.459Z,5.03
2022-12-16T23:35:43.643Z,4.84
2022-12-16T23:38:37.771Z,4.94
2022-12-16T23:41:25.589Z,4.73
2022-12-16T23:44:12.193Z,5.15
2022-12-16T23:46:59.716Z,4.70
2022-12-16T23:49:46.362Z,4.92
2022-12-16T23:52:39.332Z,4.53
2022-12-16T23:55:26.463Z,4.96
2022-12-16T23:58:21.934Z,4.74
